Nearby METAR Reports

 

KSLC - Salt Lake City, Utah, USA
Distance from station: SW 8mi, 13km
Updated: Wed, 21-Nov-2018 7:54am MST
Few Clouds
Few Clouds
 Wind from ESE
Wind: ESE 5 mph , 7 km/h
Temperature: 25°F , -4°C
Wind Chill: 19°F , -7°C
Dew Point: 18°F , -8°C
Humidity: 74%
Barometer: 30.25 inHg , 1024.4 hPa
Clouds: Few Clouds
Visibility: 10 miles , 16 km
Cloud details: Few Clouds 20000 ft
2018/11/21 14:54 KSLC 211454Z 11004KT 10SM FEW200 M04/M08 A3025 RMK AO2 SLP264 T10441078 53009 VISNO NW RNWY
KU42 - Salt Lake Muni, Utah, USA
Distance from station: SSW 18mi, 28km
Updated: Wed, 21-Nov-2018 8:35am MST
Clear
Clear
 Wind from S
Wind: S 8 mph , 13 km/h
Temperature: 30°F , -1°C
Wind Chill: 22°F , -6°C
Dew Point: 19°F , -7°C
Humidity: 64%
Barometer: 30.25 inHg , 1024.4 hPa
Clouds: Clear
Visibility: 10 miles , 16 km
2018/11/21 15:35 KU42 211535Z AUTO 17007KT 10SM CLR M01/M07 A3025 RMK AO1 T10121067
 
KHIF - Hill Afb/Ogden, Utah, USA
Distance from station: NNW 19mi, 30km
Updated: Wed, 21-Nov-2018 1:58am MST
NOT Current
Clear
Clear
 Wind from ESE
Wind: ESE 14 mph , 22 km/h
Temperature: 32°F , 0°C
Wind Chill: 22°F , -6°C
Dew Point: 7°F , -14°C
Humidity: 34%
Barometer: 30.20 inHg , 1022.7 hPa
Clouds: Clear
Visibility: 10 miles , 16 km
2018/11/21 08:58 KHIF 210858Z AUTO 12012KT 10SM CLR 00/M14 A3020 RMK AO2 SLP228 T10031136 50001
KOGD - Ogden, Utah, USA
Distance from station: NNW 25mi, 40km
Updated: Wed, 21-Nov-2018 7:53am MST
Clear
Clear
 Wind from S
Wind: S 10 mph , 17 km/h
Temperature: 27°F , -3°C
Wind Chill: 18°F , -8°C
Dew Point: 7°F , -14°C
Humidity: 43%
Barometer: 30.24 inHg , 1024 hPa
Clouds: Clear
Visibility: 10 miles , 16 km
2018/11/21 14:53 KOGD 211453Z 18009KT 10SM CLR M03/M14 A3024 RMK AO2 SLP258 T10281139 53010
 
K36U - Heber/Russ Mcdon, Utah, USA
Distance from station: SE 34mi, 55km
Updated: Wed, 11-Oct-2017 6:50pm MDT
NOT Current
Clear
Clear
 Wind from SSW
Wind: SSW 10 mph , 17 km/h, Gust: 18 mph , 30 km/h
Temperature: 63°F , 17°C
Dew Point: 16°F , -9°C
Humidity: 16%
Barometer: 29.87 inHg , 1011.5 hPa
Clouds: Clear
Visibility: 10 miles , 16 km
2017/10/12 00:50 K36U 120050Z AUTO 21009G16KT 10SM CLR 17/M09 A2987 RMK AO2
KPVU - Provo Muni, Utah, USA
Distance from station: S 45mi, 72km
Updated: Wed, 21-Nov-2018 7:56am MST
Clear
Clear
 Wind from calm
Wind: Calm
Temperature: 18°F , -8°C
Dew Point: 12°F , -11°C
Humidity: 79%
Barometer: 30.28 inHg , 1025.4 hPa
Clouds: Clear
Visibility: 10 miles , 16 km
2018/11/21 14:56 KPVU 211456Z 00000KT 10SM CLR M08/M11 A3028 RMK AO2 SLP293 T10781111 53011